Time;durP1;ratioP1;P1;durP2;ratioP2;P2;SDS_P1;SDS_P2;PMS_P1;PMS_P2;Temp;Humidity;BMP_temperature;BMP_pressure;BME280_temperature;BME280_humidity;BME280_pressure;Samples;Min_cycle;Max_cycle;Signal;HPM_P1;HPM_P2
2021/07/20 00:00:51;;;;;;;12.52;9.30;;;26.30;64.80;;;;;;5053657;28;20036;-71
2021/07/20 00:03:16;;;;;;;12.35;8.73;;;26.30;65.00;;;;;;5053631;28;20032;-71
2021/07/20 00:05:42;;;;;;;11.55;9.25;;;26.30;64.50;;;;;;5053424;28;20066;-72
2021/07/20 00:08:11;;;;;;;12.40;8.90;;;26.30;64.40;;;;;;5053136;28;20448;-73
2021/07/20 00:10:36;;;;;;;11.45;7.90;;;26.30;64.50;;;;;;5053511;28;20032;-71
2021/07/20 00:13:05;;;;;;;13.88;8.85;;;26.30;64.00;;;;;;5053661;28;20024;-71
2021/07/20 00:15:31;;;;;;;13.43;8.77;;;26.30;64.10;;;;;;5053645;28;20462;-72
2021/07/20 00:17:59;;;;;;;11.32;7.80;;;26.30;64.00;;;;;;5053142;28;20021;-72
2021/07/20 00:20:27;;;;;;;12.98;8.07;;;26.30;63.50;;;;;;5053444;28;20029;-72
2021/07/20 00:22:53;;;;;;;11.63;8.43;;;26.30;63.50;;;;;;5053326;28;20020;-72
2021/07/20 00:25:20;;;;;;;15.45;9.40;;;26.30;63.30;;;;;;5053219;28;20458;-71
2021/07/20 00:27:46;;;;;;;11.15;8.57;;;26.30;63.30;;;;;;5053215;28;20040;-72
2021/07/20 00:30:13;;;;;;;12.80;9.23;;;26.30;63.30;;;;;;5053059;28;20025;-72
2021/07/20 00:32:40;;;;;;;12.55;8.73;;;26.30;63.60;;;;;;5052915;28;20029;-72
2021/07/20 00:35:10;;;;;;;12.40;8.90;;;26.30;63.80;;;;;;5052924;28;20024;-71
2021/07/20 00:37:37;;;;;;;11.50;9.02;;;26.30;63.90;;;;;;5053019;28;20359;-72
2021/07/20 00:40:05;;;;;;;12.05;9.00;;;26.30;64.10;;;;;;5053183;28;20033;-72
2021/07/20 00:42:31;;;;;;;13.55;8.65;;;26.30;64.30;;;;;;5052943;28;20366;-72
2021/07/20 00:44:59;;;;;;;15.00;9.18;;;26.20;64.80;;;;;;5052837;28;20025;-71
2021/07/20 00:47:25;;;;;;;11.73;9.15;;;26.20;64.90;;;;;;5052727;28;20032;-71
2021/07/20 00:49:50;;;;;;;12.45;9.60;;;26.10;64.70;;;;;;5052511;28;20489;-70
2021/07/20 00:52:16;;;;;;;12.02;8.75;;;26.10;64.70;;;;;;5052405;28;20094;-70
2021/07/20 00:54:42;;;;;;;13.02;9.82;;;26.10;64.80;;;;;;5052776;28;20104;-71
2021/07/20 00:57:08;;;;;;;14.60;8.73;;;26.10;65.00;;;;;;5052866;28;20056;-71
2021/07/20 00:59:35;;;;;;;14.30;8.35;;;26.10;64.70;;;;;;5052709;28;20063;-71
2021/07/20 01:02:01;;;;;;;11.93;7.88;;;26.10;64.50;;;;;;5052996;28;20442;-70
2021/07/20 01:04:26;;;;;;;11.20;8.25;;;26.00;64.00;;;;;;5052962;28;20515;-71
2021/07/20 01:06:55;;;;;;;10.13;7.57;;;25.90;64.20;;;;;;5052715;28;20037;-72
2021/07/20 01:09:22;;;;;;;10.50;7.68;;;25.90;64.30;;;;;;5053023;28;20390;-73
2021/07/20 01:11:50;;;;;;;10.32;7.30;;;25.80;64.20;;;;;;5052874;28;20104;-74
2021/07/20 01:14:16;;;;;;;11.25;6.97;;;25.80;64.10;;;;;;5051692;28;20386;-73
2021/07/20 01:16:43;;;;;;;10.60;7.70;;;25.70;64.20;;;;;;5052913;28;20043;-74
2021/07/20 01:19:14;;;;;;;10.80;7.68;;;25.70;64.30;;;;;;5053123;28;20033;-74
2021/07/20 01:21:41;;;;;;;10.52;7.53;;;25.70;64.20;;;;;;5053003;28;20017;-73
2021/07/20 01:24:13;;;;;;;9.10;7.22;;;25.80;64.10;;;;;;5052979;28;20035;-74
2021/07/20 01:26:39;;;;;;;14.07;7.90;;;25.70;64.30;;;;;;5051345;28;20009;-74
2021/07/20 01:29:06;;;;;;;10.98;7.35;;;25.70;64.30;;;;;;5052701;28;20494;-74
2021/07/20 01:31:37;;;;;;;9.55;7.45;;;25.60;64.60;;;;;;5052696;28;20021;-73
2021/07/20 01:34:06;;;;;;;11.27;7.35;;;25.50;64.90;;;;;;5052875;28;20040;-75
2021/07/20 01:36:33;;;;;;;10.95;7.18;;;25.50;64.30;;;;;;5051376;28;20074;-73
2021/07/20 01:39:06;;;;;;;12.15;7.88;;;25.50;64.40;;;;;;5052786;28;20021;-74
2021/07/20 01:41:33;;;;;;;12.02;7.38;;;25.40;65.10;;;;;;5052581;28;20029;-72
2021/07/20 01:44:07;;;;;;;14.27;7.13;;;25.40;64.50;;;;;;5052843;28;20100;-73
2021/07/20 01:46:35;;;;;;;8.45;6.78;;;25.40;64.60;;;;;;5052619;28;20486;-74
2021/07/20 01:49:05;;;;;;;9.35;7.25;;;25.30;64.50;;;;;;5052233;28;20039;-70
2021/07/20 01:51:32;;;;;;;11.57;7.25;;;25.30;64.70;;;;;;5052438;28;20096;-71
2021/07/20 01:54:00;;;;;;;12.05;7.78;;;25.20;64.80;;;;;;5052338;28;20053;-70
2021/07/20 01:56:26;;;;;;;11.73;7.20;;;25.20;64.90;;;;;;5052580;28;20470;-72
2021/07/20 01:58:52;;;;;;;10.93;7.40;;;25.10;64.90;;;;;;5052358;28;20046;-73
2021/07/20 02:01:26;;;;;;;11.30;7.22;;;25.10;65.00;;;;;;5052132;28;20063;-71
2021/07/20 02:09:25;;;;;;;11.57;7.25;;;25.10;65.10;;;;;;5056023;28;19919;-73
2021/07/20 02:11:54;;;;;;;11.38;6.80;;;25.10;65.10;;;;;;5055814;28;20024;-72
2021/07/20 02:14:24;;;;;;;10.88;6.82;;;25.10;64.80;;;;;;5055785;28;20033;-71
2021/07/20 02:16:51;;;;;;;12.68;7.20;;;25.10;65.10;;;;;;5055749;28;20056;-71
2021/07/20 02:19:28;;;;;;;10.90;7.30;;;25.00;65.70;;;;;;5055889;28;20040;-73
2021/07/20 02:21:56;;;;;;;11.93;6.97;;;25.00;65.10;;;;;;5055617;28;20021;-72
2021/07/20 02:24:26;;;;;;;11.20;7.22;;;25.00;65.40;;;;;;5055704;28;20028;-72
2021/07/20 02:26:53;;;;;;;10.75;6.72;;;25.00;65.50;;;;;;5055225;28;20378;-71
2021/07/20 02:29:20;;;;;;;9.18;6.72;;;24.90;65.30;;;;;;5055919;28;20379;-72
2021/07/20 02:31:49;;;;;;;9.85;7.20;;;24.90;65.30;;;;;;5055473;28;20025;-71
2021/07/20 02:34:17;;;;;;;13.35;7.10;;;24.90;66.00;;;;;;5055474;28;20504;-71
2021/07/20 02:36:43;;;;;;;9.98;7.00;;;24.80;65.20;;;;;;5055163;28;20096;-71
2021/07/20 02:39:11;;;;;;;10.48;6.65;;;24.80;65.20;;;;;;5055361;28;20029;-72
2021/07/20 02:41:38;;;;;;;9.57;6.82;;;24.80;65.60;;;;;;5055281;28;20438;-72
2021/07/20 02:44:06;;;;;;;11.15;6.43;;;24.70;65.30;;;;;;5055241;28;20029;-72
2021/07/20 02:46:32;;;;;;;9.45;6.93;;;24.70;65.20;;;;;;5055494;28;20043;-72
2021/07/20 02:48:59;;;;;;;12.50;6.78;;;24.70;65.30;;;;;;5055002;28;20037;-70
2021/07/20 02:51:26;;;;;;;13.50;6.35;;;24.70;65.20;;;;;;5055266;28;20024;-71
2021/07/20 02:53:55;;;;;;;9.90;6.00;;;24.70;65.50;;;;;;5055127;28;20386;-71
2021/07/20 02:56:21;;;;;;;9.55;6.45;;;24.70;65.20;;;;;;5054781;28;20009;-72
2021/07/20 02:58:50;;;;;;;8.15;5.80;;;24.70;65.10;;;;;;5055277;28;20409;-71
2021/07/20 03:01:17;;;;;;;8.63;6.13;;;24.70;64.40;;;;;;5055383;28;20025;-72
2021/07/20 03:03:43;;;;;;;10.20;5.88;;;24.70;64.30;;;;;;5055244;28;20025;-72
2021/07/20 03:06:13;;;;;;;10.88;6.03;;;24.80;64.30;;;;;;5054730;28;20028;-72
2021/07/20 03:08:41;;;;;;;11.40;6.03;;;24.90;64.40;;;;;;5054648;28;20048;-72
2021/07/20 03:11:14;;;;;;;9.98;5.88;;;24.80;64.10;;;;;;5055068;28;20028;-73
2021/07/20 03:13:44;;;;;;;8.40;5.30;;;24.90;64.50;;;;;;5053786;28;20029;-71
2021/07/20 03:16:15;;;;;;;9.13;6.50;;;24.80;64.30;;;;;;5054996;28;20112;-71
2021/07/20 03:18:44;;;;;;;9.20;5.63;;;24.70;64.40;;;;;;5054741;28;20055;-72
2021/07/20 03:21:12;;;;;;;9.88;6.00;;;24.80;64.50;;;;;;5055137;28;20485;-72
2021/07/20 03:23:40;;;;;;;13.93;6.38;;;24.80;64.40;;;;;;5053441;28;20025;-72
2021/07/20 03:26:06;;;;;;;8.95;6.22;;;24.70;64.30;;;;;;5054663;28;20087;-71
2021/07/20 03:28:33;;;;;;;12.40;6.00;;;24.70;64.10;;;;;;5054702;28;20468;-72
2021/07/20 03:31:00;;;;;;;11.23;5.90;;;24.70;64.30;;;;;;5054530;28;20024;-72
2021/07/20 03:33:27;;;;;;;10.45;5.78;;;24.70;63.90;;;;;;5053361;28;20025;-70
2021/07/20 03:35:53;;;;;;;7.65;5.60;;;24.60;63.80;;;;;;5054593;28;20025;-71
2021/07/20 03:38:20;;;;;;;10.55;5.78;;;24.60;63.70;;;;;;5054536;28;20021;-71
2021/07/20 03:40:50;;;;;;;11.25;5.85;;;24.50;63.70;;;;;;5054535;28;20017;-71
2021/07/20 03:43:17;;;;;;;7.97;5.70;;;24.60;63.80;;;;;;5054397;28;20029;-75
2021/07/20 03:45:44;;;;;;;11.10;5.88;;;24.50;63.40;;;;;;5054575;28;20029;-72
2021/07/20 03:48:13;;;;;;;8.68;5.35;;;24.50;63.20;;;;;;5054095;28;20067;-72
2021/07/20 03:50:40;;;;;;;10.00;5.93;;;24.50;63.30;;;;;;5053997;28;20033;-73
2021/07/20 03:53:07;;;;;;;12.65;5.80;;;24.40;63.20;;;;;;5054433;28;20508;-71
2021/07/20 03:55:35;;;;;;;10.10;6.60;;;24.40;63.40;;;;;;5054208;28;20025;-71
2021/07/20 03:58:01;;;;;;;12.10;6.20;;;24.40;63.40;;;;;;5054948;28;20025;-71
2021/07/20 04:00:28;;;;;;;9.68;6.22;;;24.30;63.10;;;;;;5054331;28;20056;-71
2021/07/20 04:03:21;;;;;;;8.90;6.55;;;24.30;63.90;;;;;;5053642;28;20355;-72
2021/07/20 04:05:45;;;;;;;10.25;6.00;;;24.30;63.70;;;;;;5053659;28;20025;-71
2021/07/20 04:08:17;;;;;;;9.02;6.10;;;24.20;64.20;;;;;;5053352;28;20049;-71
2021/07/20 04:10:44;;;;;;;13.18;6.43;;;24.20;64.30;;;;;;5053728;28;20021;-71
2021/07/20 04:13:11;;;;;;;10.98;6.00;;;24.20;64.50;;;;;;5053796;28;20029;-71
2021/07/20 04:15:46;;;;;;;8.68;5.80;;;24.20;64.40;;;;;;5054159;28;20378;-72
2021/07/20 04:18:14;;;;;;;12.73;6.13;;;24.20;64.60;;;;;;5053888;28;20044;-71
2021/07/20 04:20:48;;;;;;;9.15;6.00;;;24.20;64.50;;;;;;5053840;28;20053;-71
2021/07/20 04:23:15;;;;;;;11.20;6.05;;;24.20;64.50;;;;;;5053513;28;20021;-72
2021/07/20 04:25:43;;;;;;;10.73;6.38;;;24.20;64.60;;;;;;5053172;28;20398;-71
2021/07/20 04:28:14;;;;;;;9.27;6.35;;;24.30;64.70;;;;;;5053236;28;20021;-71
2021/07/20 04:30:41;;;;;;;9.15;6.40;;;24.30;64.80;;;;;;5053783;28;20079;-72
2021/07/20 04:33:11;;;;;;;9.80;6.20;;;24.30;64.70;;;;;;5053554;28;20025;-71
2021/07/20 04:35:38;;;;;;;10.55;6.43;;;24.40;64.60;;;;;;5053527;28;20033;-72
2021/07/20 04:38:05;;;;;;;13.27;6.80;;;24.40;64.40;;;;;;5053669;28;20060;-72
2021/07/20 04:40:31;;;;;;;9.63;5.97;;;24.50;64.50;;;;;;5054203;28;20033;-72
2021/07/20 04:42:57;;;;;;;10.32;6.10;;;24.50;64.30;;;;;;5069984;28;20074;-72
2021/07/20 04:45:26;;;;;;;14.65;6.93;;;24.60;64.20;;;;;;5053814;28;20033;-71
2021/07/20 04:47:52;;;;;;;11.77;7.00;;;24.50;64.20;;;;;;5053040;28;20510;-71
2021/07/20 04:50:20;;;;;;;11.20;6.00;;;24.60;64.10;;;;;;5052955;28;20017;-72
2021/07/20 04:52:46;;;;;;;9.45;5.75;;;24.60;63.90;;;;;;5051704;28;20043;-72
2021/07/20 04:55:15;;;;;;;12.10;5.80;;;24.70;63.80;;;;;;5053053;28;20021;-71
2021/07/20 04:57:41;;;;;;;10.02;5.43;;;24.70;63.80;;;;;;5052774;28;20083;-72
2021/07/20 05:00:08;;;;;;;10.05;6.32;;;24.70;63.70;;;;;;5052809;28;20025;-72
2021/07/20 05:02:38;;;;;;;9.95;6.47;;;24.70;63.10;;;;;;5052940;28;20024;-72
2021/07/20 05:05:07;;;;;;;8.55;5.63;;;24.80;63.40;;;;;;5052974;28;20021;-71
2021/07/20 05:07:34;;;;;;;13.00;6.35;;;24.90;63.00;;;;;;5052618;28;20124;-71
2021/07/20 05:10:00;;;;;;;9.27;5.50;;;24.90;63.00;;;;;;5052846;28;20037;-72
2021/07/20 05:12:26;;;;;;;12.07;6.05;;;24.90;62.60;;;;;;5051307;28;20021;-73
2021/07/20 05:14:52;;;;;;;8.65;5.72;;;24.90;62.20;;;;;;5052951;28;20033;-73
2021/07/20 05:17:21;;;;;;;12.52;5.80;;;25.00;62.00;;;;;;5052955;28;20108;-71
2021/07/20 05:19:47;;;;;;;9.55;5.65;;;25.00;61.60;;;;;;5052976;28;20017;-74
2021/07/20 05:22:14;;;;;;;10.20;5.60;;;25.20;61.20;;;;;;5052968;28;20402;-71
2021/07/20 05:24:40;;;;;;;9.27;5.80;;;25.40;60.30;;;;;;5052719;28;20032;-72
2021/07/20 05:27:09;;;;;;;10.60;5.68;;;25.60;59.60;;;;;;5052212;28;20694;-72
2021/07/20 05:29:36;;;;;;;9.60;5.30;;;25.90;59.20;;;;;;5052460;28;20037;-77
2021/07/20 05:32:03;;;;;;;8.35;5.20;;;26.20;58.10;;;;;;5052424;28;20024;-74
2021/07/20 05:34:29;;;;;;;8.27;4.57;;;26.50;56.90;;;;;;5052940;28;20079;-73
2021/07/20 05:36:55;;;;;;;11.88;5.00;;;26.90;56.40;;;;;;5053811;28;20025;-73
2021/07/20 05:39:21;;;;;;;8.98;4.80;;;27.30;55.30;;;;;;5056651;28;20065;-73
2021/07/20 05:41:47;;;;;;;12.07;5.20;;;27.70;53.50;;;;;;5056921;28;20032;-73
2021/07/20 05:44:14;;;;;;;7.22;4.63;;;27.90;52.70;;;;;;5056340;28;20075;-74
2021/07/20 05:46:41;;;;;;;8.23;4.43;;;28.10;52.40;;;;;;5056256;28;20068;-75
2021/07/20 05:49:07;;;;;;;10.27;4.85;;;28.30;51.90;;;;;;5056413;28;20032;-74
2021/07/20 05:51:37;;;;;;;9.13;5.00;;;28.50;51.60;;;;;;5056481;28;20029;-73
2021/07/20 05:54:04;;;;;;;10.23;4.72;;;28.70;51.10;;;;;;5056028;28;20500;-74
2021/07/20 05:56:31;;;;;;;9.93;4.85;;;28.80;50.90;;;;;;5055739;28;20021;-72
2021/07/20 05:58:58;;;;;;;9.60;4.82;;;29.00;50.70;;;;;;5055871;28;20021;-72
2021/07/20 06:01:24;;;;;;;7.60;4.70;;;29.00;50.60;;;;;;5056023;28;20032;-71
2021/07/20 06:03:55;;;;;;;11.07;4.63;;;29.20;50.20;;;;;;5055941;28;20029;-72
2021/07/20 06:06:25;;;;;;;10.82;4.88;;;29.50;50.20;;;;;;5056058;28;20059;-73
2021/07/20 06:08:52;;;;;;;7.93;4.00;;;29.60;49.90;;;;;;5055511;28;20060;-72
2021/07/20 06:11:21;;;;;;;8.43;4.55;;;29.70;49.70;;;;;;5055885;28;20044;-72
2021/07/20 06:13:47;;;;;;;12.35;4.93;;;29.70;49.60;;;;;;5055670;28;20045;-72
2021/07/20 06:16:14;;;;;;;19.38;5.43;;;30.00;49.50;;;;;;5055699;28;20516;-72
2021/07/20 06:18:40;;;;;;;13.05;5.10;;;30.10;49.50;;;;;;5055405;28;20106;-73
2021/07/20 06:21:09;;;;;;;9.07;4.97;;;30.30;49.20;;;;;;5055262;28;20029;-73
2021/07/20 06:23:40;;;;;;;16.95;5.10;;;30.40;49.50;;;;;;5055366;28;20025;-73
2021/07/20 06:26:07;;;;;;;9.27;4.97;;;30.60;48.90;;;;;;5055068;28;20021;-73
2021/07/20 06:28:35;;;;;;;13.63;5.18;;;30.90;49.00;;;;;;5054978;28;20478;-71
2021/07/20 06:31:01;;;;;;;9.43;4.75;;;31.00;48.90;;;;;;5055161;28;20493;-73
2021/07/20 06:33:28;;;;;;;8.88;4.90;;;31.10;48.70;;;;;;5055166;28;20044;-72
2021/07/20 06:35:57;;;;;;;8.40;4.53;;;31.30;48.50;;;;;;5055186;28;20025;-73
2021/07/20 06:38:24;;;;;;;9.52;4.55;;;31.30;48.60;;;;;;5053890;28;20025;-72
2021/07/20 06:40:52;;;;;;;12.48;5.20;;;31.20;48.50;;;;;;5055120;28;20028;-72
2021/07/20 06:43:19;;;;;;;10.20;4.70;;;30.90;48.40;;;;;;5055081;28;20036;-71
2021/07/20 06:45:48;;;;;;;7.80;4.72;;;30.90;48.50;;;;;;5055143;28;20029;-72
2021/07/20 06:48:17;;;;;;;8.82;4.60;;;30.80;48.40;;;;;;5054375;28;20044;-72
2021/07/20 06:50:43;;;;;;;11.77;4.90;;;30.70;48.50;;;;;;5055600;28;20028;-74
2021/07/20 06:53:13;;;;;;;11.43;5.22;;;30.80;48.30;;;;;;5055545;28;20032;-71
2021/07/20 06:55:45;;;;;;;13.82;5.50;;;30.80;48.20;;;;;;5054050;28;20072;-74
2021/07/20 06:58:13;;;;;;;14.48;5.22;;;30.90;48.50;;;;;;5055030;28;20085;-73
2021/07/20 07:00:42;;;;;;;18.83;5.65;;;31.00;48.60;;;;;;5054214;28;20032;-74
2021/07/20 07:03:10;;;;;;;10.35;4.95;;;31.10;48.50;;;;;;5054988;28;20116;-72
2021/07/20 07:05:36;;;;;;;10.00;5.05;;;31.10;48.30;;;;;;5055232;28;20103;-72
2021/07/20 07:08:02;;;;;;;8.93;4.95;;;31.20;48.30;;;;;;5055483;28;20139;-72
2021/07/20 07:10:36;;;;;;;8.02;4.50;;;31.30;48.30;;;;;;5067648;28;20025;-73
2021/07/20 07:13:06;;;;;;;11.60;5.05;;;31.30;48.40;;;;;;5060168;28;20104;-74
2021/07/20 07:15:32;;;;;;;10.55;4.55;;;31.30;48.60;;;;;;5055628;28;20029;-71
2021/07/20 07:17:58;;;;;;;20.98;5.32;;;31.30;48.00;;;;;;5054742;28;20017;-76
2021/07/20 07:20:27;;;;;;;10.25;4.55;;;31.30;48.00;;;;;;5054341;28;20529;-74
2021/07/20 07:22:53;;;;;;;14.07;5.45;;;31.40;48.40;;;;;;5054481;28;20029;-73
2021/07/20 07:25:20;;;;;;;13.30;5.78;;;31.40;48.60;;;;;;5054862;28;20017;-73
2021/07/20 07:27:49;;;;;;;10.38;4.38;;;31.40;48.60;;;;;;5054458;28;20037;-72
2021/07/20 07:30:16;;;;;;;13.52;5.05;;;31.60;48.30;;;;;;5053140;28;20040;-72
2021/07/20 07:32:42;;;;;;;13.02;4.75;;;31.50;48.10;;;;;;5054481;28;20025;-75
2021/07/20 07:35:10;;;;;;;13.82;5.10;;;31.60;48.40;;;;;;5054255;28;20025;-73
2021/07/20 07:37:38;;;;;;;12.05;4.55;;;31.70;47.60;;;;;;5054503;28;20040;-72
2021/07/20 07:40:07;;;;;;;14.70;5.03;;;31.60;48.50;;;;;;5054094;28;20351;-73
2021/07/20 07:42:39;;;;;;;17.48;5.45;;;31.70;47.20;;;;;;5056336;28;20100;-73
2021/07/20 07:45:07;;;;;;;13.98;4.78;;;31.80;47.90;;;;;;5054448;28;20041;-75
2021/07/20 07:47:35;;;;;;;13.05;5.00;;;31.80;47.90;;;;;;5055921;28;20020;-75
2021/07/20 07:50:04;;;;;;;14.43;5.28;;;31.80;48.00;;;;;;5053994;28;20029;-75
2021/07/20 07:52:30;;;;;;;15.52;5.35;;;31.80;47.90;;;;;;5053148;28;20021;-74
2021/07/20 07:54:56;;;;;;;9.75;5.15;;;31.90;47.80;;;;;;5054525;28;20029;-72
2021/07/20 07:57:22;;;;;;;11.13;4.40;;;31.80;47.60;;;;;;5053982;28;20492;-73
2021/07/20 07:59:54;;;;;;;9.88;4.43;;;31.70;47.90;;;;;;5053485;28;20021;-72
2021/07/20 08:02:24;;;;;;;8.23;4.75;;;31.70;47.80;;;;;;5054807;28;20032;-73
2021/07/20 08:04:52;;;;;;;8.45;4.35;;;31.70;47.80;;;;;;5054026;28;20373;-72
2021/07/20 08:07:19;;;;;;;8.95;4.30;;;31.70;47.80;;;;;;5053417;28;20402;-73
2021/07/20 08:09:46;;;;;;;8.05;4.72;;;31.70;48.00;;;;;;5053646;28;20036;-73
2021/07/20 08:12:31;;;;;;;10.23;4.35;;;31.70;47.50;;;;;;5052332;28;20017;-76
2021/07/20 08:14:57;;;;;;;10.82;4.60;;;31.60;48.00;;;;;;5053706;28;20024;-74
2021/07/20 08:17:25;;;;;;;6.35;3.72;;;31.70;47.70;;;;;;5053422;28;20049;-74
2021/07/20 08:19:52;;;;;;;8.45;4.75;;;31.70;47.80;;;;;;5054020;28;20028;-74
2021/07/20 08:22:19;;;;;;;10.77;4.60;;;31.70;47.90;;;;;;5052524;28;20370;-73
2021/07/20 08:24:54;;;;;;;9.20;4.63;;;31.70;47.70;;;;;;5053477;28;20028;-74
2021/07/20 08:27:33;;;;;;;10.93;4.82;;;31.60;47.90;;;;;;5053341;28;20025;-73
2021/07/20 08:30:12;;;;;;;10.82;4.50;;;31.40;47.60;;;;;;5053707;28;20079;-72
2021/07/20 08:32:48;;;;;;;8.60;4.72;;;31.40;45.60;;;;;;5054075;28;20049;-73
2021/07/20 08:35:20;;;;;;;7.80;4.75;;;31.30;48.20;;;;;;5053769;28;20025;-73
2021/07/20 08:37:50;;;;;;;8.48;4.82;;;31.20;48.30;;;;;;5053419;28;20055;-74
2021/07/20 08:40:47;;;;;;;10.20;4.30;;;31.10;48.20;;;;;;5053794;28;20031;-74
2021/07/20 08:43:39;;;;;;;13.88;8.43;;;31.00;48.50;;;;;;5032985;28;20370;-72
2021/07/20 08:46:14;;;;;;;9.50;4.75;;;31.00;46.00;;;;;;5053130;28;20036;-72
2021/07/20 08:49:05;;;;;;;8.75;4.35;;;30.80;48.00;;;;;;5053274;28;20060;-73
2021/07/20 08:51:57;;;;;;;8.55;4.82;;;30.80;48.60;;;;;;5053556;28;20013;-72
2021/07/20 08:54:40;;;;;;;6.10;4.13;;;30.60;48.10;;;;;;5037512;28;20080;-74
2021/07/20 08:57:11;;;;;;;8.02;4.72;;;30.50;46.60;;;;;;5053501;28;20111;-73
2021/07/20 09:00:10;;;;;;;9.05;4.47;;;30.50;48.50;;;;;;5052979;28;20040;-73
2021/07/20 09:02:38;;;;;;;10.43;4.80;;;30.50;46.50;;;;;;5050424;28;20083;-73
2021/07/20 09:05:18;;;;;;;11.98;4.80;;;30.40;48.70;;;;;;5055162;28;20367;-73
2021/07/20 09:08:27;;;;;;;7.93;4.75;;;30.40;48.70;;;;;;5053448;28;20041;-72
2021/07/20 09:11:19;;;;;;;12.02;4.30;;;30.50;48.70;;;;;;5038496;28;20138;-74
2021/07/20 09:14:08;;;;;;;6.28;4.10;;;30.60;46.80;;;;;;5056996;28;20048;-72
2021/07/20 09:16:38;;;;;;;6.60;4.32;;;30.60;46.70;;;;;;5056870;28;20051;-72
2021/07/20 09:19:37;;;;;;;9.20;4.55;;;30.60;48.60;;;;;;5055801;28;20060;-72
2021/07/20 09:22:26;;;;;;;13.13;4.75;;;30.60;46.30;;;;;;5057035;28;20419;-74
2021/07/20 09:24:59;;;;;;;9.70;4.63;;;30.50;48.20;;;;;;5057394;28;20017;-73
2021/07/20 09:27:36;;;;;;;15.03;4.87;;;30.50;48.50;;;;;;5057404;28;20025;-74
2021/07/20 09:30:10;;;;;;;8.73;4.75;;;30.60;48.80;;;;;;5056910;28;20299;-73
2021/07/20 09:33:15;;;;;;;8.48;4.90;;;30.60;48.10;;;;;;5058368;28;20079;-72
2021/07/20 09:36:19;;;;;;;9.07;5.05;;;30.60;45.90;;;;;;5065369;28;20035;-72
2021/07/20 09:39:33;;;;;;;8.88;4.40;;;30.60;45.60;;;;;;5069916;28;20029;-71
2021/07/20 09:42:08;;;;;;;9.25;4.53;;;30.50;45.90;;;;;;5045734;28;20036;-73
2021/07/20 09:44:59;;;;;;;11.15;4.60;;;30.50;48.10;;;;;;5057065;28;20442;-73
2021/07/20 09:47:45;;;;;;;8.23;4.82;;;30.50;48.10;;;;;;5056773;28;20135;-72
2021/07/20 09:50:16;;;;;;;12.38;4.43;;;30.50;45.90;;;;;;5057042;28;20025;-72
2021/07/20 09:53:16;;;;;;;7.15;4.50;;;30.50;47.90;;;;;;5056484;28;20017;-72
2021/07/20 09:55:46;;;;;;;9.23;4.13;;;30.50;45.60;;;;;;5056486;28;20033;-73
2021/07/20 09:58:33;;;;;;;11.25;4.43;;;30.50;47.40;;;;;;5056216;28;20029;-73
2021/07/20 10:00:59;;;;;;;7.22;4.57;;;30.60;45.20;;;;;;5056046;28;20116;-74
2021/07/20 10:03:53;;;;;;;10.48;4.55;;;30.70;47.50;;;;;;5056242;28;20052;-74
2021/07/20 10:06:39;;;;;;;13.00;4.72;;;30.80;45.10;;;;;;5056939;28;20029;-73
2021/07/20 10:09:23;;;;;;;12.40;4.53;;;30.80;45.10;;;;;;5057080;28;20049;-72
2021/07/20 10:12:21;;;;;;;8.43;4.25;;;30.90;47.30;;;;;;5054771;28;20063;-74
2021/07/20 10:15:03;;;;;;;8.98;4.07;;;31.00;44.90;;;;;;5047010;28;20492;-76
2021/07/20 10:17:51;;;;;;;7.82;3.75;;;31.00;47.30;;;;;;5055790;28;20025;-73
2021/07/20 10:20:22;;;;;;;7.50;4.10;;;31.00;47.00;;;;;;5056277;28;20017;-73
2021/07/20 10:23:28;;;;;;;7.53;4.32;;;31.00;46.70;;;;;;5054403;28;20055;-73
2021/07/20 10:26:06;;;;;;;9.30;4.25;;;31.10;43.90;;;;;;5056784;28;20428;-74
2021/07/20 10:28:54;;;;;;;14.82;4.60;;;31.20;43.60;;;;;;5056693;28;20033;-73
2021/07/20 10:31:28;;;;;;;9.15;4.55;;;31.20;43.90;;;;;;5055920;28;20021;-76
2021/07/20 10:34:03;;;;;;;10.63;4.88;;;31.20;47.00;;;;;;5055791;28;20033;-72
2021/07/20 10:36:41;;;;;;;10.00;4.38;;;31.30;45.90;;;;;;5055268;28;20025;-73
2021/07/20 10:39:09;;;;;;;6.95;4.60;;;31.40;45.70;;;;;;5055272;28;20013;-71
2021/07/20 10:41:43;;;;;;;12.23;4.88;;;31.50;45.50;;;;;;5055373;28;20060;-72
2021/07/20 10:44:13;;;;;;;7.57;4.57;;;31.50;45.60;;;;;;5055268;28;20560;-73
2021/07/20 10:46:41;;;;;;;5.60;3.97;;;31.60;45.60;;;;;;5055347;28;20335;-74
2021/07/20 10:49:49;;;;;;;7.72;4.35;;;31.60;45.50;;;;;;5053658;28;20120;-72
2021/07/20 10:52:20;;;;;;;11.00;4.15;;;31.60;43.20;;;;;;5053221;28;20044;-73
2021/07/20 10:54:56;;;;;;;8.85;4.80;;;31.70;45.20;;;;;;5055331;28;20040;-74
2021/07/20 10:57:33;;;;;;;12.07;4.47;;;31.80;42.60;;;;;;5055081;28;20029;-75
2021/07/20 11:00:14;;;;;;;5.47;3.80;;;31.70;44.70;;;;;;5055189;28;20021;-76
2021/07/20 11:03:14;;;;;;;7.32;4.13;;;31.80;44.20;;;;;;5055288;28;20036;-72
2021/07/20 11:05:47;;;;;;;8.05;4.53;;;31.80;42.10;;;;;;5053513;28;20021;-74
2021/07/20 11:08:14;;;;;;;6.53;3.90;;;31.90;44.40;;;;;;5054503;28;20081;-75
2021/07/20 11:10:47;;;;;;;10.30;4.25;;;32.00;44.20;;;;;;5054886;28;20104;-74
2021/07/20 11:13:15;;;;;;;;;;;32.10;43.30;;;;;;5055089;28;20029;-74
2021/07/20 11:15:43;;;;;;;11.60;4.70;;;32.10;43.30;;;;;;5054531;28;20277;-73
2021/07/20 11:18:14;;;;;;;7.22;4.38;;;32.10;42.70;;;;;;5054257;28;20033;-72
2021/07/20 11:20:44;;;;;;;8.82;3.80;;;32.20;42.40;;;;;;5054507;28;20017;-73
2021/07/20 11:23:12;;;;;;;7.60;4.40;;;32.30;42.60;;;;;;5054493;28;20031;-73
2021/07/20 11:25:39;;;;;;;9.38;4.13;;;32.30;41.90;;;;;;5054406;28;20451;-73
2021/07/20 11:28:06;;;;;;;7.07;4.18;;;32.40;40.60;;;;;;5054233;28;20378;-73
2021/07/20 11:30:35;;;;;;;12.98;4.13;;;32.40;40.50;;;;;;5054194;28;20557;-72
2021/07/20 11:33:32;;;;;;;7.63;4.03;;;32.40;41.20;;;;;;5054884;28;20021;-74
2021/07/20 11:36:01;;;;;;;6.65;4.32;;;32.60;40.60;;;;;;5031697;28;20091;-74
2021/07/20 11:38:31;;;;;;;7.68;4.40;;;32.60;40.50;;;;;;5054528;28;20025;-74
2021/07/20 11:41:06;;;;;;;19.00;5.35;;;32.80;40.60;;;;;;5054240;28;20031;-72
2021/07/20 11:44:10;;;;;;;11.25;4.65;;;32.90;40.50;;;;;;5054301;28;20446;-72
2021/07/20 11:46:46;;;;;;;11.00;6.45;;;33.00;39.40;;;;;;5052020;28;20041;-74
2021/07/20 11:49:39;;;;;;;11.70;8.00;;;33.10;41.50;;;;;;5054071;28;20040;-72
2021/07/20 11:52:14;;;;;;;12.50;7.78;;;33.00;43.90;;;;;;5054204;28;20543;-74
2021/07/20 11:54:53;;;;;;;17.10;9.73;;;33.00;46.80;;;;;;5054321;28;20052;-73
2021/07/20 11:58:10;;;;;;;12.20;7.32;;;32.90;44.80;;;;;;5054267;28;20075;-73
2021/07/20 12:01:13;;;;;;;9.95;6.38;;;33.00;45.30;;;;;;5059461;28;20033;-73
2021/07/20 12:04:16;;;;;;;12.98;6.85;;;32.90;45.50;;;;;;5057897;28;20025;-75
2021/07/20 12:07:04;;;;;;;10.03;6.30;;;33.10;45.30;;;;;;5053393;28;20025;-73
2021/07/20 12:09:32;;;;;;;9.38;6.00;;;33.00;45.20;;;;;;5053484;28;20795;-73
2021/07/20 12:11:59;;;;;;;11.52;6.18;;;33.10;47.60;;;;;;5053410;28;20474;-72
2021/07/20 12:14:25;;;;;;;9.70;5.80;;;33.10;47.90;;;;;;5053839;28;20500;-73
2021/07/20 12:16:54;;;;;;;11.52;6.45;;;33.20;47.70;;;;;;5053374;28;20086;-72
2021/07/20 12:19:30;;;;;;;9.50;6.20;;;33.40;47.70;;;;;;5053055;28;20101;-73
2021/07/20 12:22:00;;;;;;;10.07;6.53;;;33.40;47.40;;;;;;5053335;28;20032;-74
2021/07/20 12:24:27;;;;;;;9.85;6.18;;;33.50;46.70;;;;;;5053428;28;20021;-73
2021/07/20 12:26:53;;;;;;;11.48;5.75;;;33.50;46.50;;;;;;5053586;28;20033;-73
2021/07/20 12:29:19;;;;;;;9.57;5.55;;;33.50;46.10;;;;;;5052947;28;20078;-73
2021/07/20 12:31:48;;;;;;;11.05;5.97;;;33.50;46.00;;;;;;5053345;28;20037;-73
2021/07/20 12:34:15;;;;;;;10.18;5.45;;;33.60;46.30;;;;;;5053285;28;20392;-73
2021/07/20 12:36:42;;;;;;;10.35;5.82;;;33.60;45.70;;;;;;5053233;28;20389;-73
2021/07/20 12:39:19;;;;;;;9.38;6.30;;;33.60;45.40;;;;;;5053382;28;20028;-73
2021/07/20 12:41:46;;;;;;;7.47;5.38;;;33.70;45.20;;;;;;5053511;28;20036;-73
2021/07/20 12:44:13;;;;;;;7.97;5.53;;;33.70;44.80;;;;;;5053642;28;20025;-72
2021/07/20 12:46:40;;;;;;;9.00;5.32;;;33.70;44.10;;;;;;5053451;28;20013;-72
2021/07/20 12:49:06;;;;;;;9.82;5.90;;;33.70;44.60;;;;;;5053349;28;20067;-73
2021/07/20 12:51:33;;;;;;;15.10;6.05;;;33.70;44.40;;;;;;5053200;28;20496;-72
2021/07/20 12:53:59;;;;;;;11.60;5.55;;;33.60;44.40;;;;;;5053030;28;20064;-73
2021/07/20 12:56:29;;;;;;;8.05;5.43;;;33.60;43.80;;;;;;5053106;28;20053;-73
2021/07/20 12:59:04;;;;;;;9.82;5.68;;;33.60;44.40;;;;;;5068355;28;20109;-72
2021/07/20 13:01:32;;;;;;;7.20;5.30;;;33.60;44.10;;;;;;5053243;28;20029;-73
2021/07/20 13:04:00;;;;;;;9.50;5.90;;;33.60;44.40;;;;;;5052992;28;20017;-71
2021/07/20 13:06:27;;;;;;;10.32;5.47;;;33.50;44.60;;;;;;5053238;28;20044;-73
2021/07/20 13:08:54;;;;;;;7.63;5.10;;;33.50;44.20;;;;;;5052692;28;20045;-72